Belmont, Idaho
Current Conditions -  °F | °C
As of 9:35 AM on Monday 24 Nov 2014 (Local Time) from KCOE Reporting Station
Clear Clear  
Wind Chill: 28°   Ceiling: Unl
Heat Index: 34°   Visibility: 10mi
Dew Point: 30°   Wind: 7mph
Humidity: 87%   Direction: 180°S
Pressure: 30.34"   Gusts: NA
Location:  47.9325°N, 116.647°W
Report Text: KCOE 241735Z AUTO 18006KT 10SM CLR 01/M01 A3034 RMK AO1
Loading
Personal Weather Stations






























Interactive Weather Map New forecast layout! Learn more

10-Day Weather Forecast

Advertisements
Track Severe Weather on mobile